sensor_id;sensor_type;location;lat;lon;timestamp;pressure;altitude;pressure_sealevel;temperature;humidity
53023;BME280;38913;44.338;11.206;2023-04-16T00:02:13;98453.78;;;11.15;nan
53023;BME280;38913;44.338;11.206;2023-04-16T00:04:39;98479.38;;;11.20;nan
53023;BME280;38913;44.338;11.206;2023-04-16T00:07:06;98502.56;;;11.18;nan
53023;BME280;38913;44.338;11.206;2023-04-16T00:09:32;98479.31;;;11.09;nan
53023;BME280;38913;44.338;11.206;2023-04-16T00:11:57;98501.16;;;11.10;nan
53023;BME280;38913;44.338;11.206;2023-04-16T00:14:23;98490.16;;;11.13;nan
53023;BME280;38913;44.338;11.206;2023-04-16T00:16:49;98491.13;;;11.07;nan
53023;BME280;38913;44.338;11.206;2023-04-16T00:19:14;98488.03;;;11.15;nan
53023;BME280;38913;44.338;11.206;2023-04-16T00:21:39;98484.22;;;11.00;nan
53023;BME280;38913;44.338;11.206;2023-04-16T00:24:05;98513.72;;;10.97;nan
53023;BME280;38913;44.338;11.206;2023-04-16T00:26:30;98500.84;;;11.01;nan
53023;BME280;38913;44.338;11.206;2023-04-16T00:28:56;98478.97;;;11.00;nan
53023;BME280;38913;44.338;11.206;2023-04-16T00:31:28;98437.38;;;11.08;nan
53023;BME280;38913;44.338;11.206;2023-04-16T00:33:54;98426.50;;;10.99;nan
53023;BME280;38913;44.338;11.206;2023-04-16T00:36:22;98429.22;;;11.09;nan
53023;BME280;38913;44.338;11.206;2023-04-16T00:38:47;98424.72;;;11.05;nan
53023;BME280;38913;44.338;11.206;2023-04-16T00:41:13;98376.09;;;11.23;nan
53023;BME280;38913;44.338;11.206;2023-04-16T00:43:38;98323.66;;;11.26;nan
53023;BME280;38913;44.338;11.206;2023-04-16T00:46:05;98312.03;;;11.22;nan
53023;BME280;38913;44.338;11.206;2023-04-16T00:48:32;98322.56;;;11.22;nan
53023;BME280;38913;44.338;11.206;2023-04-16T00:50:58;98312.00;;;11.17;nan
53023;BME280;38913;44.338;11.206;2023-04-16T00:53:25;98336.03;;;11.26;nan
53023;BME280;38913;44.338;11.206;2023-04-16T00:55:51;98371.00;;;11.11;nan
53023;BME280;38913;44.338;11.206;2023-04-16T00:58:17;98373.25;;;10.97;nan
53023;BME280;38913;44.338;11.206;2023-04-16T01:00:42;98397.44;;;10.89;nan
53023;BME280;38913;44.338;11.206;2023-04-16T01:03:08;98415.19;;;11.04;nan
53023;BME280;38913;44.338;11.206;2023-04-16T01:05:35;98394.84;;;10.94;nan
53023;BME280;38913;44.338;11.206;2023-04-16T01:08:00;98393.22;;;10.88;nan
53023;BME280;38913;44.338;11.206;2023-04-16T01:10:26;98385.69;;;11.02;nan
53023;BME280;38913;44.338;11.206;2023-04-16T01:12:51;98359.47;;;11.22;nan
53023;BME280;38913;44.338;11.206;2023-04-16T01:15:17;98359.88;;;11.04;nan
53023;BME280;38913;44.338;11.206;2023-04-16T01:17:46;98398.31;;;10.99;nan
53023;BME280;38913;44.338;11.206;2023-04-16T01:20:11;98424.13;;;10.97;nan
53023;BME280;38913;44.338;11.206;2023-04-16T01:22:37;98458.28;;;10.87;nan
53023;BME280;38913;44.338;11.206;2023-04-16T01:25:02;98496.91;;;10.76;nan
53023;BME280;38913;44.338;11.206;2023-04-16T01:27:28;98508.03;;;10.83;nan
53023;BME280;38913;44.338;11.206;2023-04-16T01:29:53;98493.34;;;10.88;nan
53023;BME280;38913;44.338;11.206;2023-04-16T01:32:20;98485.91;;;10.84;nan
53023;BME280;38913;44.338;11.206;2023-04-16T01:34:46;98488.78;;;10.83;nan
53023;BME280;38913;44.338;11.206;2023-04-16T01:37:12;98518.16;;;10.69;nan
53023;BME280;38913;44.338;11.206;2023-04-16T01:39:37;98527.97;;;10.74;nan
53023;BME280;38913;44.338;11.206;2023-04-16T01:42:03;98523.84;;;10.83;nan
53023;BME280;38913;44.338;11.206;2023-04-16T01:44:29;98506.09;;;10.73;nan
53023;BME280;38913;44.338;11.206;2023-04-16T01:46:55;98523.22;;;10.98;nan
53023;BME280;38913;44.338;11.206;2023-04-16T01:49:21;98515.78;;;10.95;nan
53023;BME280;38913;44.338;11.206;2023-04-16T01:51:47;98514.97;;;10.90;nan
53023;BME280;38913;44.338;11.206;2023-04-16T01:54:13;98509.78;;;11.00;nan
53023;BME280;38913;44.338;11.206;2023-04-16T01:56:38;98468.94;;;10.97;nan
53023;BME280;38913;44.338;11.206;2023-04-16T01:59:04;98470.41;;;10.88;nan
53023;BME280;38913;44.338;11.206;2023-04-16T02:01:30;98491.34;;;10.72;nan
53023;BME280;38913;44.338;11.206;2023-04-16T02:03:56;98525.97;;;10.86;nan
53023;BME280;38913;44.338;11.206;2023-04-16T02:06:21;98523.25;;;11.04;nan
53023;BME280;38913;44.338;11.206;2023-04-16T02:08:47;98485.44;;;10.88;nan
53023;BME280;38913;44.338;11.206;2023-04-16T02:11:14;98462.22;;;10.84;nan
53023;BME280;38913;44.338;11.206;2023-04-16T02:13:39;98450.38;;;10.87;nan
53023;BME280;38913;44.338;11.206;2023-04-16T02:16:05;98475.72;;;10.93;nan
53023;BME280;38913;44.338;11.206;2023-04-16T02:18:30;98480.94;;;10.88;nan
53023;BME280;38913;44.338;11.206;2023-04-16T02:20:57;98469.47;;;10.99;nan
53023;BME280;38913;44.338;11.206;2023-04-16T02:23:26;98434.69;;;10.97;nan
53023;BME280;38913;44.338;11.206;2023-04-16T02:25:51;98401.38;;;10.86;nan
53023;BME280;38913;44.338;11.206;2023-04-16T02:28:17;98396.41;;;10.90;nan
53023;BME280;38913;44.338;11.206;2023-04-16T02:30:42;98396.41;;;10.90;nan
53023;BME280;38913;44.338;11.206;2023-04-16T02:33:10;98414.50;;;10.81;nan
53023;BME280;38913;44.338;11.206;2023-04-16T02:35:37;98439.25;;;10.80;nan
53023;BME280;38913;44.338;11.206;2023-04-16T02:38:03;98434.75;;;11.08;nan
53023;BME280;38913;44.338;11.206;2023-04-16T02:40:29;98403.94;;;10.81;nan
53023;BME280;38913;44.338;11.206;2023-04-16T02:42:55;98429.25;;;10.82;nan
53023;BME280;38913;44.338;11.206;2023-04-16T02:45:21;98450.25;;;10.71;nan
53023;BME280;38913;44.338;11.206;2023-04-16T02:47:47;98450.41;;;10.65;nan
53023;BME280;38913;44.338;11.206;2023-04-16T02:50:13;98473.44;;;10.52;nan
53023;BME280;38913;44.338;11.206;2023-04-16T02:52:38;98469.44;;;10.72;nan
53023;BME280;38913;44.338;11.206;2023-04-16T02:55:05;98449.72;;;10.75;nan
53023;BME280;38913;44.338;11.206;2023-04-16T02:57:30;98448.69;;;10.76;nan
53023;BME280;38913;44.338;11.206;2023-04-16T02:59:56;98405.88;;;10.91;nan
53023;BME280;38913;44.338;11.206;2023-04-16T03:02:21;98418.34;;;10.73;nan
53023;BME280;38913;44.338;11.206;2023-04-16T03:04:46;98403.91;;;10.76;nan
53023;BME280;38913;44.338;11.206;2023-04-16T03:07:12;98414.00;;;10.56;nan
53023;BME280;38913;44.338;11.206;2023-04-16T03:09:38;98422.00;;;10.67;nan
53023;BME280;38913;44.338;11.206;2023-04-16T03:12:03;98433.72;;;10.54;nan
53023;BME280;38913;44.338;11.206;2023-04-16T03:14:29;98451.06;;;10.50;nan
53023;BME280;38913;44.338;11.206;2023-04-16T03:16:55;98467.50;;;10.40;nan
53023;BME280;38913;44.338;11.206;2023-04-16T03:19:21;98478.28;;;10.38;nan
53023;BME280;38913;44.338;11.206;2023-04-16T03:21:46;98480.84;;;10.33;nan
53023;BME280;38913;44.338;11.206;2023-04-16T03:24:12;98510.09;;;10.14;nan
53023;BME280;38913;44.338;11.206;2023-04-16T03:26:37;98533.00;;;10.14;nan
53023;BME280;38913;44.338;11.206;2023-04-16T03:29:03;98527.63;;;10.26;nan
53023;BME280;38913;44.338;11.206;2023-04-16T03:31:28;98499.44;;;10.43;nan
53023;BME280;38913;44.338;11.206;2023-04-16T03:33:54;98465.75;;;10.45;nan
53023;BME280;38913;44.338;11.206;2023-04-16T03:36:19;98452.94;;;10.32;nan
53023;BME280;38913;44.338;11.206;2023-04-16T03:38:44;98487.59;;;10.24;nan
53023;BME280;38913;44.338;11.206;2023-04-16T03:41:10;98495.59;;;10.34;nan
53023;BME280;38913;44.338;11.206;2023-04-16T03:43:35;98484.38;;;10.22;nan
53023;BME280;38913;44.338;11.206;2023-04-16T03:46:01;98505.28;;;10.28;nan
53023;BME280;38913;44.338;11.206;2023-04-16T03:48:26;98523.47;;;10.30;nan
53023;BME280;38913;44.338;11.206;2023-04-16T03:50:52;98516.41;;;10.36;nan
53023;BME280;38913;44.338;11.206;2023-04-16T03:53:17;98524.16;;;10.25;nan
53023;BME280;38913;44.338;11.206;2023-04-16T03:55:43;98574.94;;;10.03;nan
53023;BME280;38913;44.338;11.206;2023-04-16T03:58:08;98613.75;;;9.96;nan
53023;BME280;38913;44.338;11.206;2023-04-16T04:00:34;98668.38;;;9.89;nan
53023;BME280;38913;44.338;11.206;2023-04-16T04:02:59;98690.22;;;9.89;nan
53023;BME280;38913;44.338;11.206;2023-04-16T04:05:25;98694.44;;;9.90;nan
53023;BME280;38913;44.338;11.206;2023-04-16T04:07:50;98723.31;;;10.02;nan
53023;BME280;38913;44.338;11.206;2023-04-16T04:10:15;98705.13;;;10.01;nan
53023;BME280;38913;44.338;11.206;2023-04-16T04:12:41;98702.97;;;9.98;nan
53023;BME280;38913;44.338;11.206;2023-04-16T04:15:07;98688.38;;;10.07;nan
53023;BME280;38913;44.338;11.206;2023-04-16T04:17:33;98666.59;;;9.95;nan
53023;BME280;38913;44.338;11.206;2023-04-16T04:19:58;98698.63;;;9.74;nan
53023;BME280;38913;44.338;11.206;2023-04-16T04:22:23;98738.69;;;9.64;nan
53023;BME280;38913;44.338;11.206;2023-04-16T04:24:49;98751.19;;;9.57;nan
53023;BME280;38913;44.338;11.206;2023-04-16T04:27:14;98921.16;;;9.16;nan
53023;BME280;38913;44.338;11.206;2023-04-16T04:29:40;99458.84;;;9.42;nan
53023;BME280;38913;44.338;11.206;2023-04-16T04:32:05;99735.63;;;9.17;nan
53023;BME280;38913;44.338;11.206;2023-04-16T04:34:31;99863.00;;;9.15;nan
53023;BME280;38913;44.338;11.206;2023-04-16T04:36:56;99907.88;;;9.40;nan
53023;BME280;38913;44.338;11.206;2023-04-16T04:39:21;99801.31;;;9.31;nan
53023;BME280;38913;44.338;11.206;2023-04-16T04:41:47;99743.91;;;9.21;nan
53023;BME280;38913;44.338;11.206;2023-04-16T04:44:13;99693.03;;;8.88;nan
53023;BME280;38913;44.338;11.206;2023-04-16T04:46:39;99740.13;;;8.90;nan
53023;BME280;38913;44.338;11.206;2023-04-16T04:49:05;99715.41;;;9.18;nan
53023;BME280;38913;44.338;11.206;2023-04-16T04:51:31;99752.38;;;9.23;nan
53023;BME280;38913;44.338;11.206;2023-04-16T04:53:56;99762.09;;;9.29;nan
53023;BME280;38913;44.338;11.206;2023-04-16T04:56:21;99715.47;;;8.98;nan
53023;BME280;38913;44.338;11.206;2023-04-16T04:58:49;99770.41;;;8.99;nan
53023;BME280;38913;44.338;11.206;2023-04-16T05:01:15;99778.91;;;9.15;nan
53023;BME280;38913;44.338;11.206;2023-04-16T05:03:40;99820.88;;;9.48;nan
53023;BME280;38913;44.338;11.206;2023-04-16T05:06:06;99692.72;;;9.30;nan
53023;BME280;38913;44.338;11.206;2023-04-16T05:08:31;99751.22;;;8.99;nan
53023;BME280;38913;44.338;11.206;2023-04-16T05:10:57;99724.81;;;9.46;nan
53023;BME280;38913;44.338;11.206;2023-04-16T05:13:22;99534.16;;;9.62;nan
53023;BME280;38913;44.338;11.206;2023-04-16T05:15:47;99442.50;;;9.84;nan
53023;BME280;38913;44.338;11.206;2023-04-16T05:18:13;99388.41;;;9.51;nan
53023;BME280;38913;44.338;11.206;2023-04-16T05:20:38;99433.88;;;10.14;nan
53023;BME280;38913;44.338;11.206;2023-04-16T05:23:03;98887.13;;;14.79;nan
53023;BME280;38913;44.338;11.206;2023-04-16T05:25:29;98203.41;;;17.31;nan
53023;BME280;38913;44.338;11.206;2023-04-16T05:27:54;98164.69;;;16.54;nan
53023;BME280;38913;44.338;11.206;2023-04-16T05:30:20;98116.72;;;17.75;nan
53023;BME280;38913;44.338;11.206;2023-04-16T05:32:45;98098.22;;;17.33;nan
53023;BME280;38913;44.338;11.206;2023-04-16T05:35:10;98071.69;;;17.65;nan
53023;BME280;38913;44.338;11.206;2023-04-16T05:37:36;98050.28;;;18.02;nan
53023;BME280;38913;44.338;11.206;2023-04-16T05:40:01;98022.88;;;18.42;nan
53023;BME280;38913;44.338;11.206;2023-04-16T05:42:27;98188.09;;;21.46;nan
53023;BME280;38913;44.338;11.206;2023-04-16T05:44:52;98641.94;;;20.46;nan
53023;BME280;38913;44.338;11.206;2023-04-16T05:47:18;98400.88;;;18.03;nan
53023;BME280;38913;44.338;11.206;2023-04-16T05:49:43;98591.38;;;19.49;nan
53023;BME280;38913;44.338;11.206;2023-04-16T05:52:09;99277.41;;;21.08;nan
53023;BME280;38913;44.338;11.206;2023-04-16T05:54:34;99408.81;;;21.73;nan
53023;BME280;38913;44.338;11.206;2023-04-16T05:57:00;99466.91;;;20.78;nan
53023;BME280;38913;44.338;11.206;2023-04-16T05:59:26;99527.69;;;22.75;nan
53023;BME280;38913;44.338;11.206;2023-04-16T06:01:51;99557.91;;;21.36;nan
53023;BME280;38913;44.338;11.206;2023-04-16T06:04:17;99567.47;;;21.56;nan
53023;BME280;38913;44.338;11.206;2023-04-16T06:06:42;99603.16;;;22.46;nan
53023;BME280;38913;44.338;11.206;2023-04-16T06:09:08;99628.91;;;23.26;nan
53023;BME280;38913;44.338;11.206;2023-04-16T06:11:34;99646.63;;;24.76;nan
53023;BME280;38913;44.338;11.206;2023-04-16T06:13:59;99652.00;;;22.15;nan
53023;BME280;38913;44.338;11.206;2023-04-16T06:16:25;99640.44;;;21.34;nan
53023;BME280;38913;44.338;11.206;2023-04-16T06:18:50;99658.75;;;23.38;nan
53023;BME280;38913;44.338;11.206;2023-04-16T06:21:15;99662.25;;;21.98;nan
53023;BME280;38913;44.338;11.206;2023-04-16T06:23:41;99647.97;;;20.69;nan
53023;BME280;38913;44.338;11.206;2023-04-16T06:26:06;99655.91;;;23.43;nan
53023;BME280;38913;44.338;11.206;2023-04-16T06:28:31;99677.34;;;22.70;nan
53023;BME280;38913;44.338;11.206;2023-04-16T06:30:58;99616.88;;;20.48;nan
53023;BME280;38913;44.338;11.206;2023-04-16T06:33:24;99661.97;;;23.12;nan
53023;BME280;38913;44.338;11.206;2023-04-16T06:35:49;99680.47;;;25.18;nan
53023;BME280;38913;44.338;11.206;2023-04-16T06:38:15;99693.97;;;25.53;nan
53023;BME280;38913;44.338;11.206;2023-04-16T06:40:40;99694.56;;;24.57;nan
53023;BME280;38913;44.338;11.206;2023-04-16T06:43:05;99697.84;;;24.94;nan
53023;BME280;38913;44.338;11.206;2023-04-16T06:45:31;99675.56;;;18.59;nan
53023;BME280;38913;44.338;11.206;2023-04-16T06:47:57;99657.31;;;21.15;nan
53023;BME280;38913;44.338;11.206;2023-04-16T06:50:24;64753.19;;;-148.30;100.00
53023;BME280;38913;44.338;11.206;2023-04-16T06:52:51;99657.31;;;21.15;nan
53023;BME280;38913;44.338;11.206;2023-04-16T06:55:16;99612.00;;;19.32;nan
53023;BME280;38913;44.338;11.206;2023-04-16T06:57:42;99649.91;;;21.07;nan
53023;BME280;38913;44.338;11.206;2023-04-16T07:00:08;99635.59;;;19.89;nan
53023;BME280;38913;44.338;11.206;2023-04-16T07:02:33;99670.59;;;22.11;nan
53023;BME280;38913;44.338;11.206;2023-04-16T07:04:59;99705.56;;;22.81;nan
53023;BME280;38913;44.338;11.206;2023-04-16T07:07:24;99702.19;;;23.77;nan
53023;BME280;38913;44.338;11.206;2023-04-16T07:09:50;99714.91;;;26.48;nan
53023;BME280;38913;44.338;11.206;2023-04-16T07:12:16;99714.66;;;23.96;nan
53023;BME280;38913;44.338;11.206;2023-04-16T07:14:41;99728.53;;;25.77;nan
53023;BME280;38913;44.338;11.206;2023-04-16T07:17:07;99714.72;;;25.26;nan
53023;BME280;38913;44.338;11.206;2023-04-16T07:19:32;99730.59;;;23.46;nan
53023;BME280;38913;44.338;11.206;2023-04-16T07:21:58;99712.44;;;22.87;nan
53023;BME280;38913;44.338;11.206;2023-04-16T07:24:24;99715.16;;;20.38;nan
53023;BME280;38913;44.338;11.206;2023-04-16T07:26:49;99719.81;;;25.36;nan
53023;BME280;38913;44.338;11.206;2023-04-16T07:29:15;99730.78;;;23.36;nan
53023;BME280;38913;44.338;11.206;2023-04-16T07:31:40;99736.59;;;25.33;nan
53023;BME280;38913;44.338;11.206;2023-04-16T07:34:06;99733.81;;;26.48;nan
53023;BME280;38913;44.338;11.206;2023-04-16T07:36:31;99742.09;;;22.49;nan
53023;BME280;38913;44.338;11.206;2023-04-16T07:38:56;99720.94;;;27.35;nan
53023;BME280;38913;44.338;11.206;2023-04-16T07:41:22;99720.94;;;27.35;nan
53023;BME280;38913;44.338;11.206;2023-04-16T07:43:47;99728.38;;;22.36;nan
53023;BME280;38913;44.338;11.206;2023-04-16T07:46:13;99721.91;;;21.52;nan
53023;BME280;38913;44.338;11.206;2023-04-16T07:48:38;99731.06;;;23.49;nan
53023;BME280;38913;44.338;11.206;2023-04-16T07:51:04;99725.56;;;21.37;nan
53023;BME280;38913;44.338;11.206;2023-04-16T07:53:29;99724.88;;;21.69;nan
53023;BME280;38913;44.338;11.206;2023-04-16T07:55:55;99726.41;;;24.54;nan
53023;BME280;38913;44.338;11.206;2023-04-16T07:58:20;99725.03;;;25.95;nan
53023;BME280;38913;44.338;11.206;2023-04-16T08:00:45;99740.28;;;24.16;nan
53023;BME280;38913;44.338;11.206;2023-04-16T08:03:11;99737.06;;;20.94;nan
53023;BME280;38913;44.338;11.206;2023-04-16T08:05:36;99746.22;;;21.94;nan
53023;BME280;38913;44.338;11.206;2023-04-16T08:08:01;99736.84;;;24.97;nan
53023;BME280;38913;44.338;11.206;2023-04-16T08:10:27;99721.22;;;30.69;nan
53023;BME280;38913;44.338;11.206;2023-04-16T08:12:53;99751.00;;;28.44;nan
53023;BME280;38913;44.338;11.206;2023-04-16T08:15:18;99718.91;;;31.62;nan
53023;BME280;38913;44.338;11.206;2023-04-16T08:17:43;99722.16;;;32.61;nan
53023;BME280;38913;44.338;11.206;2023-04-16T08:20:09;99734.44;;;30.70;nan
53023;BME280;38913;44.338;11.206;2023-04-16T08:22:35;99723.50;;;32.01;nan
53023;BME280;38913;44.338;11.206;2023-04-16T08:25:01;99726.75;;;33.80;nan
53023;BME280;38913;44.338;11.206;2023-04-16T08:27:27;99726.47;;;32.39;nan
53023;BME280;38913;44.338;11.206;2023-04-16T08:29:52;99732.78;;;30.82;nan
53023;BME280;38913;44.338;11.206;2023-04-16T08:32:18;99729.94;;;31.30;nan
53023;BME280;38913;44.338;11.206;2023-04-16T08:34:43;99728.09;;;33.59;nan
53023;BME280;38913;44.338;11.206;2023-04-16T08:37:09;99742.56;;;26.36;nan
53023;BME280;38913;44.338;11.206;2023-04-16T08:39:34;99733.94;;;30.32;nan
53023;BME280;38913;44.338;11.206;2023-04-16T08:42:01;99746.19;;;26.49;nan
53023;BME280;38913;44.338;11.206;2023-04-16T08:44:34;99731.38;;;31.08;nan
53023;BME280;38913;44.338;11.206;2023-04-16T08:47:02;99718.47;;;34.56;nan
53023;BME280;38913;44.338;11.206;2023-04-16T08:49:27;99733.31;;;32.29;nan
53023;BME280;38913;44.338;11.206;2023-04-16T08:51:54;99734.13;;;35.47;nan
53023;BME280;38913;44.338;11.206;2023-04-16T08:56:57;99737.59;;;30.08;nan
53023;BME280;38913;44.338;11.206;2023-04-16T08:59:23;99746.34;;;30.17;nan
53023;BME280;38913;44.338;11.206;2023-04-16T09:01:49;99741.50;;;29.66;nan
53023;BME280;38913;44.338;11.206;2023-04-16T09:04:16;99739.88;;;30.54;nan
53023;BME280;38913;44.338;11.206;2023-04-16T09:06:43;99738.72;;;30.55;nan
53023;BME280;38913;44.338;11.206;2023-04-16T09:09:10;99741.66;;;30.98;nan
53023;BME280;38913;44.338;11.206;2023-04-16T09:11:36;99777.38;;;22.89;nan
53023;BME280;38913;44.338;11.206;2023-04-16T09:14:03;99763.03;;;21.61;nan
53023;BME280;38913;44.338;11.206;2023-04-16T09:16:33;99759.06;;;20.61;nan
53023;BME280;38913;44.338;11.206;2023-04-16T09:18:59;99757.78;;;19.84;nan
53023;BME280;38913;44.338;11.206;2023-04-16T09:21:25;99765.59;;;19.75;nan
53023;BME280;38913;44.338;11.206;2023-04-16T09:23:52;99763.56;;;20.36;nan
53023;BME280;38913;44.338;11.206;2023-04-16T09:26:18;99763.63;;;19.96;nan
53023;BME280;38913;44.338;11.206;2023-04-16T09:28:45;64753.19;;;-148.30;100.00
53023;BME280;38913;44.338;11.206;2023-04-16T09:31:15;64753.19;;;-148.30;100.00
53023;BME280;38913;44.338;11.206;2023-04-16T09:33:41;64753.19;;;-148.30;100.00
53023;BME280;38913;44.338;11.206;2023-04-16T09:36:08;64753.19;;;-148.30;100.00
53023;BME280;38913;44.338;11.206;2023-04-16T09:38:48;64753.19;;;-148.30;100.00
53023;BME280;38913;44.338;11.206;2023-04-16T09:41:14;64753.19;;;-148.30;100.00
53023;BME280;38913;44.338;11.206;2023-04-16T09:43:59;64753.19;;;-148.30;100.00
53023;BME280;38913;44.338;11.206;2023-04-16T09:48:54;64753.19;;;-148.30;100.00
53023;BME280;38913;44.338;11.206;2023-04-16T09:51:19;64753.19;;;-148.30;100.00
53023;BME280;38913;44.338;11.206;2023-04-16T09:53:45;64753.19;;;-148.30;100.00
53023;BME280;38913;44.338;11.206;2023-04-16T09:56:11;64753.19;;;-148.30;100.00
53023;BME280;38913;44.338;11.206;2023-04-16T09:58:37;64753.19;;;-148.30;100.00
53023;BME280;38913;44.338;11.206;2023-04-16T10:01:10;64753.19;;;-148.30;100.00
53023;BME280;38913;44.338;11.206;2023-04-16T10:03:38;64753.19;;;-148.30;100.00
53023;BME280;38913;44.338;11.206;2023-04-16T10:08:43;64753.19;;;-148.30;100.00
53023;BME280;38913;44.338;11.206;2023-04-16T10:11:09;64753.19;;;-148.30;100.00
53023;BME280;38913;44.338;11.206;2023-04-16T10:13:34;64753.19;;;-148.30;100.00
53023;BME280;38913;44.338;11.206;2023-04-16T10:16:00;64753.19;;;-148.30;100.00
53023;BME280;38913;44.338;11.206;2023-04-16T10:18:28;64753.19;;;-148.30;100.00
53023;BME280;38913;44.338;11.206;2023-04-16T10:20:53;64753.19;;;-148.30;100.00
53023;BME280;38913;44.338;11.206;2023-04-16T10:23:20;64753.19;;;-148.30;100.00
53023;BME280;38913;44.338;11.206;2023-04-16T10:25:50;64753.19;;;-148.30;100.00
53023;BME280;38913;44.338;11.206;2023-04-16T10:28:16;64753.19;;;-148.30;100.00
53023;BME280;38913;44.338;11.206;2023-04-16T10:30:44;64753.19;;;-148.30;100.00
53023;BME280;38913;44.338;11.206;2023-04-16T10:33:18;64753.19;;;-148.30;100.00
53023;BME280;38913;44.338;11.206;2023-04-16T10:35:44;64753.19;;;-148.30;100.00
53023;BME280;38913;44.338;11.206;2023-04-16T10:38:26;64753.19;;;-148.30;100.00
53023;BME280;38913;44.338;11.206;2023-04-16T10:40:58;64753.19;;;-148.30;100.00
53023;BME280;38913;44.338;11.206;2023-04-16T10:43:24;64753.19;;;-148.30;100.00
53023;BME280;38913;44.338;11.206;2023-04-16T10:45:49;64753.19;;;-148.30;100.00
53023;BME280;38913;44.338;11.206;2023-04-16T10:48:17;64753.19;;;-148.30;100.00
53023;BME280;38913;44.338;11.206;2023-04-16T10:50:55;64753.19;;;-148.30;100.00
53023;BME280;38913;44.338;11.206;2023-04-16T10:53:26;64753.19;;;-148.30;100.00
53023;BME280;38913;44.338;11.206;2023-04-16T10:58:30;64753.19;;;-148.30;100.00
53023;BME280;38913;44.338;11.206;2023-04-16T11:01:06;64753.19;;;-148.30;100.00
53023;BME280;38913;44.338;11.206;2023-04-16T11:03:35;64753.19;;;-148.30;100.00
53023;BME280;38913;44.338;11.206;2023-04-16T11:08:38;64753.19;;;-148.30;100.00
53023;BME280;38913;44.338;11.206;2023-04-16T11:11:04;64753.19;;;-148.30;100.00
53023;BME280;38913;44.338;11.206;2023-04-16T11:13:30;64753.19;;;-148.30;100.00
53023;BME280;38913;44.338;11.206;2023-04-16T11:16:00;64753.19;;;-148.30;100.00
53023;BME280;38913;44.338;11.206;2023-04-16T11:18:25;64753.19;;;-148.30;100.00
53023;BME280;38913;44.338;11.206;2023-04-16T11:20:51;64753.19;;;-148.30;100.00
53023;BME280;38913;44.338;11.206;2023-04-16T11:23:17;64753.19;;;-148.30;100.00
53023;BME280;38913;44.338;11.206;2023-04-16T11:25:43;64753.19;;;-148.30;100.00
53023;BME280;38913;44.338;11.206;2023-04-16T11:28:09;64753.19;;;-148.30;100.00
53023;BME280;38913;44.338;11.206;2023-04-16T11:30:36;64753.19;;;-148.30;100.00
53023;BME280;38913;44.338;11.206;2023-04-16T11:33:08;64753.19;;;-148.30;100.00
53023;BME280;38913;44.338;11.206;2023-04-16T11:35:36;64753.19;;;-148.30;100.00
53023;BME280;38913;44.338;11.206;2023-04-16T11:38:03;64753.19;;;-148.30;100.00
53023;BME280;38913;44.338;11.206;2023-04-16T11:40:30;64753.19;;;-148.30;100.00
53023;BME280;38913;44.338;11.206;2023-04-16T11:43:04;64753.19;;;-148.30;100.00
53023;BME280;38913;44.338;11.206;2023-04-16T11:45:36;64753.19;;;-148.30;100.00
53023;BME280;38913;44.338;11.206;2023-04-16T11:48:02;64753.19;;;-148.30;100.00
53023;BME280;38913;44.338;11.206;2023-04-16T11:50:27;64753.19;;;-148.30;100.00
53023;BME280;38913;44.338;11.206;2023-04-16T11:52:55;64753.19;;;-148.30;100.00
53023;BME280;38913;44.338;11.206;2023-04-16T11:55:21;64753.19;;;-148.30;100.00
53023;BME280;38913;44.338;11.206;2023-04-16T11:57:47;64753.19;;;-148.30;100.00
53023;BME280;38913;44.338;11.206;2023-04-16T12:00:13;64753.19;;;-148.30;100.00
53023;BME280;38913;44.338;11.206;2023-04-16T12:05:06;64753.19;;;-148.30;100.00
53023;BME280;38913;44.338;11.206;2023-04-16T12:07:45;64753.19;;;-148.30;100.00
53023;BME280;38913;44.338;11.206;2023-04-16T12:10:10;64753.19;;;-148.30;100.00
53023;BME280;38913;44.338;11.206;2023-04-16T12:12:36;64753.19;;;-148.30;100.00
53023;BME280;38913;44.338;11.206;2023-04-16T12:15:02;64753.19;;;-148.30;100.00
53023;BME280;38913;44.338;11.206;2023-04-16T12:17:29;64753.19;;;-148.30;100.00
53023;BME280;38913;44.338;11.206;2023-04-16T12:20:00;64753.19;;;-148.30;100.00
53023;BME280;38913;44.338;11.206;2023-04-16T12:22:33;64753.19;;;-148.30;100.00
53023;BME280;38913;44.338;11.206;2023-04-16T12:25:00;64753.19;;;-148.30;100.00
53023;BME280;38913;44.338;11.206;2023-04-16T12:27:53;64753.19;;;-148.30;100.00
53023;BME280;38913;44.338;11.206;2023-04-16T12:30:24;64753.19;;;-148.30;100.00
53023;BME280;38913;44.338;11.206;2023-04-16T12:33:12;64753.19;;;-148.30;100.00
53023;BME280;38913;44.338;11.206;2023-04-16T12:35:38;64753.19;;;-148.30;100.00
53023;BME280;38913;44.338;11.206;2023-04-16T12:38:06;64753.19;;;-148.30;100.00
53023;BME280;38913;44.338;11.206;2023-04-16T12:40:32;64753.19;;;-148.30;100.00
53023;BME280;38913;44.338;11.206;2023-04-16T12:42:58;64753.19;;;-148.30;100.00
53023;BME280;38913;44.338;11.206;2023-04-16T12:45:24;64753.19;;;-148.30;100.00
53023;BME280;38913;44.338;11.206;2023-04-16T12:47:49;64753.19;;;-148.30;100.00
53023;BME280;38913;44.338;11.206;2023-04-16T12:50:16;64753.19;;;-148.30;100.00
53023;BME280;38913;44.338;11.206;2023-04-16T12:52:41;64753.19;;;-148.30;100.00
53023;BME280;38913;44.338;11.206;2023-04-16T12:55:07;64753.19;;;-148.30;100.00
53023;BME280;38913;44.338;11.206;2023-04-16T12:57:32;64753.19;;;-148.30;100.00
53023;BME280;38913;44.338;11.206;2023-04-16T12:59:58;64753.19;;;-148.30;100.00
53023;BME280;38913;44.338;11.206;2023-04-16T13:02:24;64753.19;;;-148.30;100.00
53023;BME280;38913;44.338;11.206;2023-04-16T13:04:50;64753.19;;;-148.30;100.00
53023;BME280;38913;44.338;11.206;2023-04-16T13:07:16;64753.19;;;-148.30;100.00
53023;BME280;38913;44.338;11.206;2023-04-16T13:09:42;64753.19;;;-148.30;100.00